KAEL

Albert Lea Municipal Airport

Albert Lea, Minnesota, USA
METAR KAEL 151319Z AUTO 25006KT 7SM UP OVC018 M03/M04 A2988 RMK AO2
Observed Flight Rules
Dec-15 @ 13:19 UTC (49 minutes ago) Marginal Visual Flight Rules
Wind Visibility Clouds Conditions
250° at 6 knots 7 miles
  • Overcast at 1,800' AGL
  • Unknown precipitation
Temperatures Readings
Current -3°C / 27°F
Dewpoint -4°C / 25°F
Humidity 93%
Altimeter 29.88" Hg
Pressure 1012 hPa
Elevation 383
METAR KAEL 151319Z AUTO 25006KT 7SM UP OVC018 M03/M04 A2988 RMK AO2
Observed Flight Rules
Dec-15 @ 13:19 UTC
(49 minutes ago)
MVFR
Wind Visibility
250° at 6 knots 7 miles
Clouds
  • Overcast at 1,800' AGL
Conditions
  • Unknown precipitation
Temperature Dewpoint
-3°C / 27°F -4°C / 25°F
Humidity Altimeter Pressure
93% 29.88" Hg 1012 hPa